createdAt,value
2019-05-02T00:02:24.124Z,100039
2019-05-02T00:04:55.850Z,100029
2019-05-02T00:07:21.746Z,100030
2019-05-02T00:09:50.378Z,100030
2019-05-02T00:12:19.162Z,100036
2019-05-02T00:14:48.012Z,100035
2019-05-02T00:17:20.320Z,100032
2019-05-02T00:19:49.875Z,100031
2019-05-02T00:22:17.254Z,100041
2019-05-02T00:24:44.163Z,100037
2019-05-02T00:27:13.001Z,100029
2019-05-02T00:29:41.907Z,100029
2019-05-02T00:32:10.721Z,100028
2019-05-02T00:34:39.577Z,100019
2019-05-02T00:37:08.416Z,100022
2019-05-02T00:39:37.261Z,100023
2019-05-02T00:42:12.727Z,100013
2019-05-02T00:44:34.954Z,100028
2019-05-02T00:47:06.123Z,100017
2019-05-02T00:49:35.527Z,100014
2019-05-02T00:52:03.232Z,100020
2019-05-02T00:54:32.567Z,100014
2019-05-02T00:57:02.161Z,100012
2019-05-02T00:59:31.018Z,100009
2019-05-02T01:02:04.794Z,100010
2019-05-02T01:04:29.450Z,100011
2019-05-02T01:06:59.032Z,100009
2019-05-02T01:09:27.889Z,100009
2019-05-02T01:11:56.740Z,100009
2019-05-02T01:14:27.047Z,100010
2019-05-02T01:16:56.214Z,100010
2019-05-02T01:19:23.306Z,100007
2019-05-02T01:21:52.895Z,100009
2019-05-02T01:24:21.743Z,100012
2019-05-02T01:26:50.597Z,100012
2019-05-02T01:29:20.252Z,100012
2019-05-02T01:31:49.965Z,100012
2019-05-02T01:34:19.699Z,100004
2019-05-02T01:36:53.957Z,100013
2019-05-02T01:39:22.819Z,100014
2019-05-02T01:41:52.407Z,100009
2019-05-02T01:44:22.014Z,100008
2019-05-02T01:46:54.053Z,100017
2019-05-02T01:49:21.876Z,100008
2019-05-02T01:51:49.317Z,100008
2019-05-02T01:54:18.201Z,100001
2019-05-02T01:56:47.785Z,99997
2019-05-02T01:59:16.629Z,99992
2019-05-02T02:01:45.496Z,99987
2019-05-02T02:04:16.146Z,99993
2019-05-02T02:06:45.172Z,99992
2019-05-02T02:09:12.769Z,99994
2019-05-02T02:11:41.615Z,99986
2019-05-02T02:14:13.067Z,99995
2019-05-02T02:16:40.516Z,99999
2019-05-02T02:19:08.161Z,100001
2019-05-02T02:21:37.890Z,99997
2019-05-02T02:24:06.737Z,99999
2019-05-02T02:26:35.587Z,100000
2019-05-02T02:29:07.835Z,99997
2019-05-02T02:31:39.910Z,99993
2019-05-02T02:34:02.172Z,100005
2019-05-02T02:36:34.138Z,99999
2019-05-02T02:38:59.858Z,99999
2019-05-02T02:41:28.755Z,99993
2019-05-02T02:44:00.504Z,99994
2019-05-02T02:46:30.827Z,99988
2019-05-02T02:48:57.182Z,99997
2019-05-02T02:51:26.777Z,99990
2019-05-02T02:54:02.868Z,99994
2019-05-02T02:56:24.480Z,99986
2019-05-02T02:58:53.330Z,99985
2019-05-02T03:01:29.108Z,99988
2019-05-02T03:03:51.765Z,99985
2019-05-02T03:06:20.616Z,99988
2019-05-02T03:08:49.462Z,99997
2019-05-02T03:11:23.491Z,99980
2019-05-02T03:13:52.629Z,99981
2019-05-02T03:16:19.084Z,99978
2019-05-02T03:18:47.941Z,99972
2019-05-02T03:21:20.158Z,99975
2019-05-02T03:23:45.642Z,99976
2019-05-02T03:26:15.604Z,99972
2019-05-02T03:28:43.359Z,99982
2019-05-02T03:31:23.632Z,99974
2019-05-02T03:33:55.115Z,99971
2019-05-02T03:36:25.817Z,99972
2019-05-02T03:38:38.725Z,99974
2019-05-02T03:41:13.353Z,99975
2019-05-02T03:43:37.152Z,99969
2019-05-02T03:46:06.032Z,99976
2019-05-02T03:48:34.834Z,99984
2019-05-02T03:51:05.219Z,99988
2019-05-02T03:53:32.560Z,99987
2019-05-02T03:56:10.835Z,99987
2019-05-02T03:58:31.007Z,99993
2019-05-02T04:01:01.688Z,99995
2019-05-02T04:03:34.162Z,99986
2019-05-02T04:05:58.290Z,99984
2019-05-02T04:08:27.128Z,99981
2019-05-02T04:13:42.865Z,99989
2019-05-02T04:16:15.261Z,99987
2019-05-02T04:18:40.564Z,99998
2019-05-02T04:21:10.138Z,99995
2019-05-02T04:23:39.015Z,99986
2019-05-02T04:26:12.907Z,99985
2019-05-02T04:28:36.678Z,99990
2019-05-02T04:31:05.526Z,99993
2019-05-02T04:33:36.371Z,99984
2019-05-02T04:36:13.544Z,99988
2019-05-02T04:38:44.300Z,99980
2019-05-02T04:41:00.941Z,99981
2019-05-02T04:43:29.827Z,99991
2019-05-02T04:46:00.166Z,99984
2019-05-02T04:48:28.481Z,99995
2019-05-02T04:51:01.980Z,99989
2019-05-02T04:53:36.719Z,99988
2019-05-02T04:56:01.597Z,99993
2019-05-02T04:58:29.592Z,99986
2019-05-02T05:00:58.313Z,99995
2019-05-02T05:03:22.795Z,100002
2019-05-02T05:05:51.650Z,99991
2019-05-02T05:08:26.217Z,99991
2019-05-02T05:10:49.355Z,99996
2019-05-02T05:13:22.800Z,99996
2019-05-02T05:15:51.276Z,99989
2019-05-02T05:18:17.633Z,100002
2019-05-02T05:20:46.085Z,99983
2019-05-02T05:23:15.735Z,99998
2019-05-02T05:25:45.026Z,99994
2019-05-02T05:28:13.837Z,99997
2019-05-02T05:30:45.432Z,99997
2019-05-02T05:33:11.517Z,100003
2019-05-02T05:35:46.366Z,100006
2019-05-02T05:38:09.231Z,99998
2019-05-02T05:40:38.674Z,100005
2019-05-02T05:43:14.530Z,100000
2019-05-02T05:45:48.643Z,100003
2019-05-02T05:48:05.266Z,100005
2019-05-02T05:50:37.724Z,100003
2019-05-02T05:53:02.962Z,100005
2019-05-02T05:55:31.824Z,100004
2019-05-02T05:58:11.818Z,100012
2019-05-02T06:00:30.279Z,100017
2019-05-02T06:03:10.292Z,100010
2019-05-02T06:05:33.341Z,100009
2019-05-02T06:07:58.378Z,100011
2019-05-02T06:10:27.816Z,100011
2019-05-02T06:12:56.670Z,100013
2019-05-02T06:15:25.519Z,100019
2019-05-02T06:17:54.377Z,100021
2019-05-02T06:20:25.675Z,100021
2019-05-02T06:22:54.986Z,100020
2019-05-02T06:25:32.419Z,100024
2019-05-02T06:27:49.801Z,100027
2019-05-02T06:30:18.651Z,100027
2019-05-02T06:32:49.963Z,100024
2019-05-02T06:35:17.102Z,100031
2019-05-02T06:37:49.493Z,100029
2019-05-02T06:40:14.074Z,100035
2019-05-02T06:42:42.928Z,100034
2019-05-02T06:45:11.796Z,100031
2019-05-02T06:47:41.549Z,100031
2019-05-02T06:50:09.559Z,100031
2019-05-02T06:52:38.394Z,100036
2019-05-02T06:55:07.245Z,100030
2019-05-02T06:57:36.092Z,100035
2019-05-02T07:00:06.782Z,100038
2019-05-02T07:02:35.400Z,100032
2019-05-02T07:05:05.162Z,100035
2019-05-02T07:07:36.995Z,100026
2019-05-02T07:10:02.887Z,100025
2019-05-02T07:12:31.762Z,100030
2019-05-02T07:15:01.542Z,100026
2019-05-02T07:17:32.057Z,100025
2019-05-02T07:20:04.035Z,100028
2019-05-02T07:22:33.047Z,100032
2019-05-02T07:25:01.950Z,100030
2019-05-02T07:27:33.749Z,100025
2019-05-02T07:29:59.709Z,100025
2019-05-02T07:32:27.820Z,100027
2019-05-02T07:34:56.676Z,100028
2019-05-02T07:37:25.530Z,100020
2019-05-02T07:39:54.375Z,100028
2019-05-02T07:42:23.233Z,100019
2019-05-02T07:44:52.071Z,100026
2019-05-02T07:47:21.656Z,100025
2019-05-02T07:49:50.513Z,100025
2019-05-02T07:52:19.377Z,100016
2019-05-02T07:54:48.234Z,100016
2019-05-02T07:57:17.127Z,100020
2019-05-02T07:59:45.960Z,100009
2019-05-02T08:02:14.817Z,100015
2019-05-02T08:04:44.927Z,100017
2019-05-02T08:07:16.286Z,100018
2019-05-02T08:09:44.091Z,100017
2019-05-02T08:12:10.971Z,100015
2019-05-02T08:14:39.843Z,100014
2019-05-02T08:17:16.096Z,100015
2019-05-02T08:19:41.617Z,100009
2019-05-02T08:22:13.665Z,100013
2019-05-02T08:24:37.968Z,100008
2019-05-02T08:27:04.205Z,100004
2019-05-02T08:29:33.034Z,100008
2019-05-02T08:32:01.905Z,99998
2019-05-02T08:34:33.273Z,100001
2019-05-02T08:37:03.172Z,99996
2019-05-02T08:39:33.718Z,99990
2019-05-02T08:42:00.599Z,99992
2019-05-02T08:44:29.432Z,99990
2019-05-02T08:46:59.019Z,99996
2019-05-02T08:49:27.874Z,99983
2019-05-02T08:51:56.730Z,99996
2019-05-02T08:54:28.022Z,99987
2019-05-02T08:56:58.944Z,99982
2019-05-02T08:59:24.516Z,99990
2019-05-02T09:01:52.876Z,99981
2019-05-02T09:04:24.208Z,99983
2019-05-02T09:06:53.207Z,99970
2019-05-02T09:09:22.770Z,99983
2019-05-02T09:12:01.313Z,99971
2019-05-02T09:14:17.151Z,99975
2019-05-02T09:16:46.543Z,99972
2019-05-02T09:19:21.309Z,99964
2019-05-02T09:21:44.309Z,99957
2019-05-02T09:24:20.681Z,99963
2019-05-02T09:26:42.582Z,99944
2019-05-02T09:29:12.555Z,99953
2019-05-02T09:31:42.158Z,99943
2019-05-02T09:34:08.520Z,99948
2019-05-02T09:36:38.209Z,99933
2019-05-02T09:39:06.214Z,99935
2019-05-02T09:41:36.305Z,99938
2019-05-02T09:44:03.972Z,99928
2019-05-02T09:46:32.866Z,99928
2019-05-02T09:49:06.528Z,99924
2019-05-02T09:51:32.440Z,99926
2019-05-02T09:54:02.728Z,99931
2019-05-02T09:56:28.288Z,99929
2019-05-02T09:59:04.757Z,99927
2019-05-02T10:01:26.055Z,99926
2019-05-02T10:03:55.636Z,99912
2019-05-02T10:06:24.474Z,99928
2019-05-02T10:08:53.352Z,99915
2019-05-02T10:11:26.095Z,99902
2019-05-02T10:13:51.840Z,99902
2019-05-02T10:16:23.526Z,99899
2019-05-02T10:18:48.750Z,99903
2019-05-02T10:21:17.607Z,99896
2019-05-02T10:23:46.444Z,99890
2019-05-02T10:26:20.275Z,99886
2019-05-02T10:28:49.516Z,99885
2019-05-02T10:31:13.028Z,99886
2019-05-02T10:33:42.622Z,99877
2019-05-02T10:36:19.405Z,99880
2019-05-02T10:38:42.711Z,99873
2019-05-02T10:41:12.056Z,99875
2019-05-02T10:43:42.163Z,99867
2019-05-02T10:46:13.018Z,99867
2019-05-02T10:48:42.450Z,99864
2019-05-02T10:51:11.690Z,99862
2019-05-02T10:53:41.927Z,99851
2019-05-02T10:56:11.703Z,99855
2019-05-02T10:58:38.601Z,99848
2019-05-02T11:01:08.204Z,99848
2019-05-02T11:03:38.111Z,99846
2019-05-02T11:06:07.823Z,99848
2019-05-02T11:08:36.868Z,99846
2019-05-02T11:11:06.115Z,99839
2019-05-02T11:13:32.452Z,99836
2019-05-02T11:16:07.756Z,99840
2019-05-02T11:18:44.855Z,99833
2019-05-02T11:21:12.214Z,99823
2019-05-02T11:23:41.930Z,99826
2019-05-02T11:26:13.943Z,99820
2019-05-02T11:28:38.349Z,99820
2019-05-02T11:31:09.864Z,99811
2019-05-02T11:33:36.771Z,99810
2019-05-02T11:36:05.634Z,99819
2019-05-02T11:38:39.717Z,99820
2019-05-02T11:41:03.317Z,99810
2019-05-02T11:43:32.591Z,99809
2019-05-02T11:46:05.902Z,99802
2019-05-02T11:48:34.334Z,99805
2019-05-02T11:51:07.394Z,99802
2019-05-02T11:53:32.657Z,99801
2019-05-02T11:56:03.685Z,99799
2019-05-02T11:58:29.774Z,99796
2019-05-02T12:00:58.648Z,99796
2019-05-02T12:03:32.806Z,99794
2019-05-02T12:05:57.068Z,99782
2019-05-02T12:08:25.940Z,99787
2019-05-02T12:10:54.785Z,99782
2019-05-02T12:13:23.633Z,99778
2019-05-02T12:15:52.506Z,99787
2019-05-02T12:18:23.314Z,99787
2019-05-02T12:20:52.001Z,99782
2019-05-02T12:23:19.088Z,99780
2019-05-02T12:25:48.676Z,99776
2019-05-02T12:28:18.270Z,99766
2019-05-02T12:30:47.117Z,99765
2019-05-02T12:33:16.749Z,99760
2019-05-02T12:35:46.330Z,99762
2019-05-02T12:38:15.173Z,99764
2019-05-02T12:40:44.021Z,99757
2019-05-02T12:43:12.862Z,99753
2019-05-02T12:45:42.452Z,99748
2019-05-02T12:48:12.908Z,99754
2019-05-02T12:50:41.772Z,99753
2019-05-02T12:53:08.991Z,99742
2019-05-02T12:55:37.845Z,99732
2019-05-02T12:58:06.693Z,99748
2019-05-02T13:00:35.532Z,99744
2019-05-02T13:03:05.165Z,99733
2019-05-02T13:05:34.020Z,99732
2019-05-02T13:08:03.643Z,99733
2019-05-02T13:10:35.128Z,99726
2019-05-02T13:13:03.982Z,99718
2019-05-02T13:15:33.017Z,99721
2019-05-02T13:18:03.014Z,99718
2019-05-02T13:20:34.665Z,99707
2019-05-02T13:23:04.358Z,99710
2019-05-02T13:25:36.847Z,99688
2019-05-02T13:28:02.208Z,99689
2019-05-02T13:30:32.775Z,99683
2019-05-02T13:32:59.747Z,99687
2019-05-02T13:35:31.518Z,99685
2019-05-02T13:37:58.200Z,99679
2019-05-02T13:40:27.009Z,99683
2019-05-02T13:45:27.587Z,99677
2019-05-02T13:47:56.439Z,99677
2019-05-02T13:50:25.295Z,99667
2019-05-02T13:52:57.910Z,99665
2019-05-02T13:55:23.797Z,99653
2019-05-02T13:57:53.065Z,99666
2019-05-02T14:00:22.379Z,99652
2019-05-02T14:02:52.012Z,99652
2019-05-02T14:05:19.173Z,99650
2019-05-02T14:07:52.575Z,99648
2019-05-02T14:10:16.882Z,99645
2019-05-02T14:12:45.734Z,99645
2019-05-02T14:15:15.321Z,99648
2019-05-02T14:17:44.189Z,99630
2019-05-02T14:20:13.771Z,99638
2019-05-02T14:22:42.472Z,99635
2019-05-02T14:25:12.310Z,99622
2019-05-02T14:27:42.018Z,99638
2019-05-02T14:30:08.463Z,99629
2019-05-02T14:32:37.303Z,99624
2019-05-02T14:35:06.151Z,99616
2019-05-02T14:37:35.752Z,99627
2019-05-02T14:40:06.590Z,99618
2019-05-02T14:42:36.189Z,99612
2019-05-02T14:45:19.909Z,99607
2019-05-02T14:47:35.388Z,99608
2019-05-02T14:50:05.215Z,99608
2019-05-02T14:52:37.101Z,99601
2019-05-02T14:55:03.014Z,99607
2019-05-02T14:57:32.643Z,99606
2019-05-02T15:00:03.246Z,99599
2019-05-02T15:02:34.616Z,99602
2019-05-02T15:05:03.199Z,99593
2019-05-02T15:07:32.062Z,99600
2019-05-02T15:10:05.416Z,99605
2019-05-02T15:12:32.504Z,99605
2019-05-02T15:14:59.964Z,99595
2019-05-02T15:17:33.677Z,99592
2019-05-02T15:19:57.643Z,99597
2019-05-02T15:22:27.587Z,99594
2019-05-02T15:24:56.728Z,99598
2019-05-02T15:27:33.307Z,99600
2019-05-02T15:30:01.017Z,99602
2019-05-02T15:32:25.566Z,99594
2019-05-02T15:34:54.709Z,99602
2019-05-02T15:37:25.702Z,99599
2019-05-02T15:42:22.889Z,99600
2019-05-02T15:44:52.114Z,99602
2019-05-02T15:47:18.964Z,99609
2019-05-02T15:49:50.155Z,99600
2019-05-02T15:52:19.000Z,99602
2019-05-02T15:54:46.364Z,99594
2019-05-02T15:57:18.929Z,99599
2019-05-02T15:59:46.249Z,99597
2019-05-02T16:02:17.556Z,99596
2019-05-02T16:04:44.123Z,99598
2019-05-02T16:07:13.735Z,99599
2019-05-02T16:09:42.581Z,99602
2019-05-02T16:12:12.280Z,99605
2019-05-02T16:14:42.300Z,99609
2019-05-02T16:17:09.214Z,99612
2019-05-02T16:19:38.059Z,99605
2019-05-02T16:22:08.151Z,99605
2019-05-02T16:24:36.619Z,99619
2019-05-02T16:27:05.484Z,99617
2019-05-02T16:29:34.333Z,99632
2019-05-02T16:32:06.128Z,99628
2019-05-02T16:34:35.440Z,99648
2019-05-02T16:37:07.075Z,99665
2019-05-02T16:39:34.196Z,99661
2019-05-02T16:42:04.732Z,99671
2019-05-02T16:44:32.637Z,99666
2019-05-02T16:47:02.224Z,99672
2019-05-02T16:49:32.148Z,99662
2019-05-02T16:52:04.934Z,99655
2019-05-02T16:54:28.053Z,99666
2019-05-02T16:56:58.565Z,99659
2019-05-02T16:59:25.801Z,99655
2019-05-02T17:01:54.662Z,99656
2019-05-02T17:04:24.077Z,99660
2019-05-02T17:06:56.800Z,99668
2019-05-02T17:09:23.728Z,99660
2019-05-02T17:11:52.319Z,99657
2019-05-02T17:14:19.500Z,99648
2019-05-02T17:16:52.410Z,99648
2019-05-02T17:19:17.213Z,99651
2019-05-02T17:21:53.814Z,99638
2019-05-02T17:24:17.325Z,99648
2019-05-02T17:26:44.575Z,99641
2019-05-02T17:29:16.504Z,99647
2019-05-02T17:31:42.689Z,99640
2019-05-02T17:34:13.395Z,99636
2019-05-02T17:36:39.999Z,99633
2019-05-02T17:39:09.455Z,99641
2019-05-02T17:41:42.301Z,99638
2019-05-02T17:44:07.181Z,99632
2019-05-02T17:46:39.150Z,99642
2019-05-02T17:49:05.644Z,99633
2019-05-02T17:51:37.691Z,99639
2019-05-02T17:54:03.347Z,99638
2019-05-02T17:56:32.644Z,99641
2019-05-02T17:59:02.050Z,99646
2019-05-02T18:01:33.346Z,99643
2019-05-02T18:03:58.849Z,99648
2019-05-02T18:06:32.893Z,99647
2019-05-02T18:08:56.579Z,99639
2019-05-02T18:11:29.557Z,99647
2019-05-02T18:13:54.903Z,99653
2019-05-02T18:16:24.483Z,99652
2019-05-02T18:18:53.951Z,99650
2019-05-02T18:21:26.974Z,99656
2019-05-02T18:23:52.030Z,99663
2019-05-02T18:26:22.150Z,99665
2019-05-02T18:28:49.506Z,99673
2019-05-02T18:31:18.339Z,99684
2019-05-02T18:33:47.216Z,99678
2019-05-02T18:36:17.489Z,99682
2019-05-02T18:38:45.013Z,99687
2019-05-02T18:41:13.833Z,99685
2019-05-02T18:43:45.217Z,99683
2019-05-02T18:46:12.653Z,99685
2019-05-02T18:48:44.223Z,99694
2019-05-02T18:51:09.256Z,99695
2019-05-02T18:53:38.695Z,99710
2019-05-02T18:56:07.597Z,99713
2019-05-02T18:58:40.986Z,99720
2019-05-02T19:01:08.417Z,99708
2019-05-02T19:03:34.272Z,99719
2019-05-02T19:06:03.147Z,99725
2019-05-02T19:08:45.060Z,99733
2019-05-02T19:11:10.020Z,99735
2019-05-02T19:13:32.540Z,99730
2019-05-02T19:15:58.702Z,99732
2019-05-02T19:18:27.609Z,99728
2019-05-02T19:20:57.838Z,99738
2019-05-02T19:23:26.251Z,99734
2019-05-02T19:25:55.140Z,99739
2019-05-02T19:28:29.057Z,99745
2019-05-02T19:30:57.309Z,99732
2019-05-02T19:33:23.637Z,99750
2019-05-02T19:35:52.674Z,99741
2019-05-02T19:38:24.714Z,99736
2019-05-02T19:40:52.050Z,99742
2019-05-02T19:43:20.561Z,99741
2019-05-02T19:45:51.248Z,99743
2019-05-02T19:48:18.322Z,99739
2019-05-02T19:50:47.147Z,99742
2019-05-02T19:53:18.255Z,99745
2019-05-02T19:55:45.611Z,99741
2019-05-02T19:58:14.491Z,99749
2019-05-02T20:00:46.241Z,99751
2019-05-02T20:03:13.679Z,99750
2019-05-02T20:05:42.810Z,99758
2019-05-02T20:08:14.836Z,99758
2019-05-02T20:10:38.857Z,99758
2019-05-02T20:13:07.712Z,99764
2019-05-02T20:15:36.577Z,99763
2019-05-02T20:18:05.444Z,99767
2019-05-02T20:20:40.539Z,99766
2019-05-02T20:23:15.432Z,99761
2019-05-02T20:25:38.923Z,99773
2019-05-02T20:28:03.917Z,99767
2019-05-02T20:30:32.761Z,99770
2019-05-02T20:33:02.199Z,99766
2019-05-02T20:35:31.945Z,99778
2019-05-02T20:37:59.331Z,99771
2019-05-02T20:43:06.664Z,99789
2019-05-02T20:45:35.520Z,99790
2019-05-02T20:48:04.355Z,99785
2019-05-02T20:50:33.215Z,99806
2019-05-02T20:53:02.837Z,99808
2019-05-02T20:55:32.270Z,99818
2019-05-02T20:58:02.189Z,99809
2019-05-02T21:00:29.384Z,99811
2019-05-02T21:02:58.289Z,99807
2019-05-02T21:05:27.089Z,99811
2019-05-02T21:07:58.885Z,99803
2019-05-02T21:10:29.623Z,99813
2019-05-02T21:12:58.470Z,99822
2019-05-02T21:15:27.322Z,99820
2019-05-02T21:17:56.169Z,99824
2019-05-02T21:20:25.031Z,99819
2019-05-02T21:22:53.872Z,99818
2019-05-02T21:25:23.173Z,99822
2019-05-02T21:27:52.362Z,99821
2019-05-02T21:30:23.727Z,99824
2019-05-02T21:32:52.575Z,99824
2019-05-02T21:35:22.385Z,99822
2019-05-02T21:37:52.427Z,99825
2019-05-02T21:40:19.929Z,99829
2019-05-02T21:42:48.747Z,99825
2019-05-02T21:45:17.595Z,99818
2019-05-02T21:47:47.185Z,99823
2019-05-02T21:50:17.935Z,99822
2019-05-02T21:52:49.515Z,99811
2019-05-02T21:55:21.728Z,99806
2019-05-02T21:57:49.091Z,99813
2019-05-02T22:00:17.943Z,99809
2019-05-02T22:02:46.795Z,99813
2019-05-02T22:05:15.639Z,99822
2019-05-02T22:07:44.487Z,99809
2019-05-02T22:10:13.337Z,99813
2019-05-02T22:12:42.304Z,99823
2019-05-02T22:15:12.737Z,99808
2019-05-02T22:17:41.576Z,99820
2019-05-02T22:20:12.249Z,99819
2019-05-02T22:22:39.841Z,99825
2019-05-02T22:25:08.696Z,99821
2019-05-02T22:27:38.133Z,99823
2019-05-02T22:30:06.999Z,99821
2019-05-02T22:32:35.901Z,99826
2019-05-02T22:35:05.527Z,99835
2019-05-02T22:37:34.365Z,99828
2019-05-02T22:40:03.936Z,99834
2019-05-02T22:42:32.347Z,99833
2019-05-02T22:45:01.682Z,99837
2019-05-02T22:47:32.033Z,99834
2019-05-02T22:49:59.329Z,99832
2019-05-02T22:52:28.185Z,99836
2019-05-02T22:54:57.760Z,99840
2019-05-02T22:57:26.597Z,99845
2019-05-02T22:59:55.433Z,99838
2019-05-02T23:02:24.291Z,99839
2019-05-02T23:04:53.131Z,99834
2019-05-02T23:07:22.258Z,99844
2019-05-02T23:09:52.503Z,99833
2019-05-02T23:12:19.711Z,99830
2019-05-02T23:14:49.303Z,99830
2019-05-02T23:17:18.147Z,99832
2019-05-02T23:19:47.008Z,99830
2019-05-02T23:22:15.844Z,99830
2019-05-02T23:24:45.476Z,99829
2019-05-02T23:27:19.893Z,99832
2019-05-02T23:29:48.740Z,99833
2019-05-02T23:32:17.610Z,99834
2019-05-02T23:34:46.455Z,99843
2019-05-02T23:37:15.307Z,99839
2019-05-02T23:39:44.149Z,99840
2019-05-02T23:42:13.524Z,99842
2019-05-02T23:44:42.573Z,99843
2019-05-02T23:47:11.755Z,99839
2019-05-02T23:49:39.561Z,99848
2019-05-02T23:52:08.416Z,99841
2019-05-02T23:54:49.179Z,99840
2019-05-02T23:57:06.097Z,99846
2019-05-02T23:59:34.943Z,99851
